sensor_id;sensor_type;location;lat;lon;timestamp;pressure;altitude;pressure_sealevel;temperature;humidity
60489;BME280;46331;49.252;8.904;2023-04-25T00:00:34;99133.81;;;8.67;98.83
60489;BME280;46331;49.252;8.904;2023-04-25T00:01:14;99130.53;;;8.59;99.36
60489;BME280;46331;49.252;8.904;2023-04-25T00:01:55;99133.97;;;8.60;99.56
60489;BME280;46331;49.252;8.904;2023-04-25T00:02:36;99128.94;;;8.58;99.76
60489;BME280;46331;49.252;8.904;2023-04-25T00:03:17;99129.72;;;8.59;99.84
60489;BME280;46331;49.252;8.904;2023-04-25T00:03:58;99130.19;;;8.56;100.00
60489;BME280;46331;49.252;8.904;2023-04-25T00:04:39;99134.28;;;8.47;100.00
60489;BME280;46331;49.252;8.904;2023-04-25T00:05:20;99129.34;;;8.50;100.00
60489;BME280;46331;49.252;8.904;2023-04-25T00:06:00;99132.78;;;8.51;100.00
60489;BME280;46331;49.252;8.904;2023-04-25T00:06:42;99129.91;;;8.40;100.00
60489;BME280;46331;49.252;8.904;2023-04-25T00:07:22;99130.59;;;8.48;100.00
60489;BME280;46331;49.252;8.904;2023-04-25T00:08:03;99134.16;;;8.41;100.00
60489;BME280;46331;49.252;8.904;2023-04-25T00:08:44;99126.00;;;8.43;100.00
60489;BME280;46331;49.252;8.904;2023-04-25T00:09:25;99128.63;;;8.43;100.00
60489;BME280;46331;49.252;8.904;2023-04-25T00:10:06;99127.66;;;8.44;100.00
60489;BME280;46331;49.252;8.904;2023-04-25T00:10:46;99126.47;;;8.40;100.00
60489;BME280;46331;49.252;8.904;2023-04-25T00:11:29;99125.69;;;8.39;100.00
60489;BME280;46331;49.252;8.904;2023-04-25T00:12:11;99130.50;;;8.43;100.00
60489;BME280;46331;49.252;8.904;2023-04-25T00:12:51;99122.81;;;8.41;100.00
60489;BME280;46331;49.252;8.904;2023-04-25T00:13:32;99129.47;;;8.44;100.00
60489;BME280;46331;49.252;8.904;2023-04-25T00:14:12;99130.28;;;8.44;100.00
60489;BME280;46331;49.252;8.904;2023-04-25T00:14:53;99122.34;;;8.44;100.00
60489;BME280;46331;49.252;8.904;2023-04-25T00:15:37;99128.19;;;8.46;100.00
60489;BME280;46331;49.252;8.904;2023-04-25T00:16:18;99131.06;;;8.45;100.00
60489;BME280;46331;49.252;8.904;2023-04-25T00:16:58;99131.41;;;8.48;100.00
60489;BME280;46331;49.252;8.904;2023-04-25T00:17:39;99129.81;;;8.47;100.00
60489;BME280;46331;49.252;8.904;2023-04-25T00:18:19;99129.81;;;8.47;100.00
60489;BME280;46331;49.252;8.904;2023-04-25T00:19:01;99127.66;;;8.44;100.00
60489;BME280;46331;49.252;8.904;2023-04-25T00:19:43;99127.50;;;8.39;100.00
60489;BME280;46331;49.252;8.904;2023-04-25T00:20:25;99125.78;;;8.45;100.00
60489;BME280;46331;49.252;8.904;2023-04-25T00:21:05;99132.31;;;8.42;100.00
60489;BME280;46331;49.252;8.904;2023-04-25T00:21:46;99129.66;;;8.42;100.00
60489;BME280;46331;49.252;8.904;2023-04-25T00:22:27;99134.03;;;8.48;100.00
60489;BME280;46331;49.252;8.904;2023-04-25T00:23:07;99136.13;;;8.46;100.00
60489;BME280;46331;49.252;8.904;2023-04-25T00:23:48;99127.66;;;8.44;100.00
60489;BME280;46331;49.252;8.904;2023-04-25T00:24:28;99128.63;;;8.43;100.00
60489;BME280;46331;49.252;8.904;2023-04-25T00:25:09;99130.31;;;8.32;100.00
60489;BME280;46331;49.252;8.904;2023-04-25T00:25:50;99129.59;;;8.37;100.00
60489;BME280;46331;49.252;8.904;2023-04-25T00:26:30;99133.25;;;8.36;100.00
60489;BME280;46331;49.252;8.904;2023-04-25T00:27:11;99128.56;;;8.38;100.00
60489;BME280;46331;49.252;8.904;2023-04-25T00:27:52;99138.06;;;8.39;100.00
60489;BME280;46331;49.252;8.904;2023-04-25T00:28:32;99131.69;;;8.35;100.00
60489;BME280;46331;49.252;8.904;2023-04-25T00:29:13;99134.09;;;8.36;100.00
60489;BME280;46331;49.252;8.904;2023-04-25T00:29:53;99127.91;;;8.31;100.00
60489;BME280;46331;49.252;8.904;2023-04-25T00:30:34;99128.31;;;8.39;100.00
60489;BME280;46331;49.252;8.904;2023-04-25T00:31:14;99129.97;;;8.29;100.00
60489;BME280;46331;49.252;8.904;2023-04-25T00:31:55;99129.81;;;8.35;100.00
60489;BME280;46331;49.252;8.904;2023-04-25T00:32:35;99122.81;;;8.41;100.00
60489;BME280;46331;49.252;8.904;2023-04-25T00:33:16;99128.38;;;8.28;100.00
60489;BME280;46331;49.252;8.904;2023-04-25T00:33:56;99124.22;;;8.32;100.00
60489;BME280;46331;49.252;8.904;2023-04-25T00:34:37;99134.22;;;8.30;100.00
60489;BME280;46331;49.252;8.904;2023-04-25T00:35:17;99119.06;;;8.25;100.00
60489;BME280;46331;49.252;8.904;2023-04-25T00:35:58;99123.00;;;8.22;100.00
60489;BME280;46331;49.252;8.904;2023-04-25T00:36:39;99125.28;;;8.19;100.00
60489;BME280;46331;49.252;8.904;2023-04-25T00:37:19;99127.28;;;8.12;100.00
60489;BME280;46331;49.252;8.904;2023-04-25T00:38:00;99123.72;;;8.18;100.00
60489;BME280;46331;49.252;8.904;2023-04-25T00:38:41;99123.13;;;8.16;100.00
60489;BME280;46331;49.252;8.904;2023-04-25T00:39:21;99121.78;;;8.13;100.00
60489;BME280;46331;49.252;8.904;2023-04-25T00:40:04;99123.13;;;8.16;100.00
60489;BME280;46331;49.252;8.904;2023-04-25T00:40:46;99123.94;;;8.16;100.00
60489;BME280;46331;49.252;8.904;2023-04-25T00:41:26;99121.78;;;8.13;100.00
60489;BME280;46331;49.252;8.904;2023-04-25T00:42:08;99117.59;;;8.17;100.00
60489;BME280;46331;49.252;8.904;2023-04-25T00:42:49;99122.88;;;8.17;100.00
60489;BME280;46331;49.252;8.904;2023-04-25T00:43:30;99123.72;;;8.18;100.00
60489;BME280;46331;49.252;8.904;2023-04-25T00:44:12;99126.81;;;8.15;100.00
60489;BME280;46331;49.252;8.904;2023-04-25T00:44:54;99128.16;;;8.17;100.00
60489;BME280;46331;49.252;8.904;2023-04-25T00:45:38;99118.97;;;8.20;100.00
60489;BME280;46331;49.252;8.904;2023-04-25T00:46:18;99124.03;;;8.21;100.00
60489;BME280;46331;49.252;8.904;2023-04-25T00:47:01;99115.06;;;8.22;100.00
60489;BME280;46331;49.252;8.904;2023-04-25T00:47:42;99121.94;;;8.23;100.00
60489;BME280;46331;49.252;8.904;2023-04-25T00:48:22;99118.91;;;8.15;100.00
60489;BME280;46331;49.252;8.904;2023-04-25T00:49:03;99123.28;;;8.09;100.00
60489;BME280;46331;49.252;8.904;2023-04-25T00:49:44;99124.41;;;8.13;100.00
60489;BME280;46331;49.252;8.904;2023-04-25T00:50:26;99126.91;;;8.20;100.00
60489;BME280;46331;49.252;8.904;2023-04-25T00:51:06;99122.56;;;8.14;100.00
60489;BME280;46331;49.252;8.904;2023-04-25T00:51:47;99120.72;;;8.14;100.00
60489;BME280;46331;49.252;8.904;2023-04-25T00:52:28;99123.59;;;8.13;100.00
60489;BME280;46331;49.252;8.904;2023-04-25T00:53:08;99123.34;;;8.14;100.00
60489;BME280;46331;49.252;8.904;2023-04-25T00:53:50;99124.19;;;8.15;100.00
60489;BME280;46331;49.252;8.904;2023-04-25T00:54:31;99124.81;;;8.22;100.00
60489;BME280;46331;49.252;8.904;2023-04-25T00:55:12;99117.38;;;8.19;100.00
60489;BME280;46331;49.252;8.904;2023-04-25T00:55:53;99126.22;;;8.13;100.00
60489;BME280;46331;49.252;8.904;2023-04-25T00:56:34;99120.00;;;8.19;100.00
60489;BME280;46331;49.252;8.904;2023-04-25T00:57:15;99115.41;;;8.26;100.00
60489;BME280;46331;49.252;8.904;2023-04-25T00:57:55;99119.41;;;8.29;100.00
60489;BME280;46331;49.252;8.904;2023-04-25T00:58:37;99115.41;;;8.26;100.00
60489;BME280;46331;49.252;8.904;2023-04-25T00:59:19;99112.84;;;8.31;100.00
60489;BME280;46331;49.252;8.904;2023-04-25T00:59:59;99118.69;;;8.33;100.00
60489;BME280;46331;49.252;8.904;2023-04-25T01:00:42;99107.78;;;8.30;99.75
60489;BME280;46331;49.252;8.904;2023-04-25T01:01:31;99117.88;;;8.33;100.00
60489;BME280;46331;49.252;8.904;2023-04-25T01:02:12;99117.66;;;8.34;99.50
60489;BME280;46331;49.252;8.904;2023-04-25T01:02:53;99116.06;;;8.33;99.94
60489;BME280;46331;49.252;8.904;2023-04-25T01:03:34;99114.69;;;8.31;99.33
60489;BME280;46331;49.252;8.904;2023-04-25T01:04:21;99113.91;;;8.30;99.40
60489;BME280;46331;49.252;8.904;2023-04-25T01:05:02;99112.34;;;8.34;99.39
60489;BME280;46331;49.252;8.904;2023-04-25T01:05:44;99115.25;;;8.33;99.09
60489;BME280;46331;49.252;8.904;2023-04-25T01:06:24;99104.78;;;8.38;99.11
60489;BME280;46331;49.252;8.904;2023-04-25T01:07:05;99109.81;;;8.39;98.98
60489;BME280;46331;49.252;8.904;2023-04-25T01:07:45;99110.97;;;8.44;99.33
60489;BME280;46331;49.252;8.904;2023-04-25T01:08:27;99110.97;;;8.44;98.94
60489;BME280;46331;49.252;8.904;2023-04-25T01:09:08;99108.69;;;8.35;98.35
60489;BME280;46331;49.252;8.904;2023-04-25T01:09:51;99111.88;;;8.37;98.87
60489;BME280;46331;49.252;8.904;2023-04-25T01:10:32;99114.28;;;8.39;98.42
60489;BME280;46331;49.252;8.904;2023-04-25T01:11:12;99113.25;;;8.40;98.15
60489;BME280;46331;49.252;8.904;2023-04-25T01:11:53;99117.66;;;8.34;98.40
60489;BME280;46331;49.252;8.904;2023-04-25T01:12:34;99115.72;;;8.30;98.82
60489;BME280;46331;49.252;8.904;2023-04-25T01:13:15;99116.06;;;8.33;98.24
60489;BME280;46331;49.252;8.904;2023-04-25T01:13:56;99119.31;;;8.23;97.41
60489;BME280;46331;49.252;8.904;2023-04-25T01:14:36;99115.00;;;8.34;98.09
60489;BME280;46331;49.252;8.904;2023-04-25T01:15:19;99111.00;;;8.32;97.90
60489;BME280;46331;49.252;8.904;2023-04-25T01:16:01;99118.22;;;8.36;98.28
60489;BME280;46331;49.252;8.904;2023-04-25T01:16:42;99110.53;;;8.35;97.83
60489;BME280;46331;49.252;8.904;2023-04-25T01:17:23;99118.47;;;8.35;97.06
60489;BME280;46331;49.252;8.904;2023-04-25T01:18:05;99115.13;;;8.39;97.60
60489;BME280;46331;49.252;8.904;2023-04-25T01:18:46;99113.59;;;8.44;97.79
60489;BME280;46331;49.252;8.904;2023-04-25T01:19:27;99113.38;;;8.45;97.71
60489;BME280;46331;49.252;8.904;2023-04-25T01:20:08;99107.75;;;8.41;97.54
60489;BME280;46331;49.252;8.904;2023-04-25T01:20:53;99112.09;;;8.48;97.99
60489;BME280;46331;49.252;8.904;2023-04-25T01:21:35;99107.19;;;8.39;97.08
60489;BME280;46331;49.252;8.904;2023-04-25T01:22:16;99105.22;;;8.18;97.13
60489;BME280;46331;49.252;8.904;2023-04-25T01:22:57;99109.31;;;8.26;96.94
60489;BME280;46331;49.252;8.904;2023-04-25T01:23:41;99114.22;;;8.34;97.10
60489;BME280;46331;49.252;8.904;2023-04-25T01:24:22;99108.22;;;8.38;96.71
60489;BME280;46331;49.252;8.904;2023-04-25T01:25:03;99107.00;;;8.29;95.68
60489;BME280;46331;49.252;8.904;2023-04-25T01:25:45;99112.34;;;8.34;95.96
60489;BME280;46331;49.252;8.904;2023-04-25T01:26:26;99107.72;;;8.24;96.17
60489;BME280;46331;49.252;8.904;2023-04-25T01:27:06;99110.59;;;8.23;96.56
60489;BME280;46331;49.252;8.904;2023-04-25T01:27:47;99105.16;;;8.30;96.57
60489;BME280;46331;49.252;8.904;2023-04-25T01:28:28;99103.88;;;8.32;96.44
60489;BME280;46331;49.252;8.904;2023-04-25T01:29:10;99104.66;;;8.33;97.30
60489;BME280;46331;49.252;8.904;2023-04-25T01:29:50;99101.56;;;8.36;96.97
60489;BME280;46331;49.252;8.904;2023-04-25T01:30:31;99108.44;;;8.37;97.30
60489;BME280;46331;49.252;8.904;2023-04-25T01:31:13;99102.13;;;8.38;96.68
60489;BME280;46331;49.252;8.904;2023-04-25T01:31:54;99107.75;;;8.41;97.22
60489;BME280;46331;49.252;8.904;2023-04-25T01:32:35;99099.03;;;8.41;97.23
60489;BME280;46331;49.252;8.904;2023-04-25T01:33:20;99095.31;;;8.42;96.89
60489;BME280;46331;49.252;8.904;2023-04-25T01:34:01;99098.34;;;8.46;96.91
60489;BME280;46331;49.252;8.904;2023-04-25T01:34:43;99098.09;;;8.47;96.83
60489;BME280;46331;49.252;8.904;2023-04-25T01:35:24;99102.81;;;8.45;96.57
60489;BME280;46331;49.252;8.904;2023-04-25T01:36:07;99098.56;;;8.44;96.32
60489;BME280;46331;49.252;8.904;2023-04-25T01:36:49;99098.34;;;8.46;96.30
60489;BME280;46331;49.252;8.904;2023-04-25T01:37:30;99100.75;;;8.47;95.70
60489;BME280;46331;49.252;8.904;2023-04-25T01:38:11;99098.69;;;8.37;94.95
60489;BME280;46331;49.252;8.904;2023-04-25T01:38:52;99096.72;;;8.45;95.48
60489;BME280;46331;49.252;8.904;2023-04-25T01:39:33;99092.13;;;8.40;95.76
60489;BME280;46331;49.252;8.904;2023-04-25T01:40:13;99094.28;;;8.43;95.23
60489;BME280;46331;49.252;8.904;2023-04-25T01:40:55;99101.78;;;8.46;95.26
60489;BME280;46331;49.252;8.904;2023-04-25T01:41:36;99099.13;;;8.46;95.33
60489;BME280;46331;49.252;8.904;2023-04-25T01:42:18;99092.91;;;8.40;94.32
60489;BME280;46331;49.252;8.904;2023-04-25T01:42:59;99090.50;;;8.39;94.16
60489;BME280;46331;49.252;8.904;2023-04-25T01:43:40;99089.25;;;8.41;94.67
60489;BME280;46331;49.252;8.904;2023-04-25T01:44:20;99092.69;;;8.42;95.09
60489;BME280;46331;49.252;8.904;2023-04-25T01:45:02;99093.50;;;8.43;94.84
60489;BME280;46331;49.252;8.904;2023-04-25T01:45:44;99090.84;;;8.43;95.12
60489;BME280;46331;49.252;8.904;2023-04-25T01:46:26;99090.75;;;8.37;94.76
60489;BME280;46331;49.252;8.904;2023-04-25T01:47:07;99088.94;;;8.38;95.10
60489;BME280;46331;49.252;8.904;2023-04-25T01:47:47;99090.91;;;8.31;93.84
60489;BME280;46331;49.252;8.904;2023-04-25T01:48:29;99095.53;;;8.23;94.96
60489;BME280;46331;49.252;8.904;2023-04-25T01:49:10;99092.56;;;8.20;94.94
60489;BME280;46331;49.252;8.904;2023-04-25T01:49:51;99089.38;;;8.18;94.31
60489;BME280;46331;49.252;8.904;2023-04-25T01:50:31;99092.50;;;8.15;95.12
60489;BME280;46331;49.252;8.904;2023-04-25T01:51:12;99092.72;;;8.13;95.02
60489;BME280;46331;49.252;8.904;2023-04-25T01:51:53;99087.22;;;8.15;95.27
60489;BME280;46331;49.252;8.904;2023-04-25T01:52:34;99088.56;;;8.17;95.55
60489;BME280;46331;49.252;8.904;2023-04-25T01:53:15;99088.47;;;8.12;94.85
60489;BME280;46331;49.252;8.904;2023-04-25T01:53:58;99085.03;;;8.12;95.51
60489;BME280;46331;49.252;8.904;2023-04-25T01:54:40;99090.31;;;8.12;95.16
60489;BME280;46331;49.252;8.904;2023-04-25T01:55:24;99088.00;;;8.15;95.50
60489;BME280;46331;49.252;8.904;2023-04-25T01:56:14;99087.44;;;8.13;95.17
60489;BME280;46331;49.252;8.904;2023-04-25T01:56:57;99086.25;;;8.21;96.19
60489;BME280;46331;49.252;8.904;2023-04-25T01:57:38;99085.78;;;8.24;96.34
60489;BME280;46331;49.252;8.904;2023-04-25T01:58:19;99086.50;;;8.19;96.17
60489;BME280;46331;49.252;8.904;2023-04-25T01:59:18;99088.66;;;8.22;95.58
60489;BME280;46331;49.252;8.904;2023-04-25T02:00:02;99087.13;;;8.27;95.22
60489;BME280;46331;49.252;8.904;2023-04-25T02:00:52;99087.78;;;8.34;95.58
60489;BME280;46331;49.252;8.904;2023-04-25T02:01:33;99087.56;;;8.35;95.47
60489;BME280;46331;49.252;8.904;2023-04-25T02:02:29;99092.69;;;8.42;95.27
60489;BME280;46331;49.252;8.904;2023-04-25T02:03:10;99092.69;;;8.42;94.89
60489;BME280;46331;49.252;8.904;2023-04-25T02:03:50;99094.44;;;8.36;94.73
60489;BME280;46331;49.252;8.904;2023-04-25T02:04:46;99096.03;;;8.37;94.68
60489;BME280;46331;49.252;8.904;2023-04-25T02:05:27;99098.56;;;8.44;95.05
60489;BME280;46331;49.252;8.904;2023-04-25T02:06:09;99094.75;;;8.40;94.95
60489;BME280;46331;49.252;8.904;2023-04-25T02:06:53;99097.34;;;8.35;94.50
60489;BME280;46331;49.252;8.904;2023-04-25T02:07:33;99094.09;;;8.33;94.53
60489;BME280;46331;49.252;8.904;2023-04-25T02:08:17;99098.13;;;8.35;93.93
60489;BME280;46331;49.252;8.904;2023-04-25T02:08:57;99098.13;;;8.35;93.78
60489;BME280;46331;49.252;8.904;2023-04-25T02:09:38;99101.09;;;8.39;94.83
60489;BME280;46331;49.252;8.904;2023-04-25T02:10:20;99091.56;;;8.38;94.81
60489;BME280;46331;49.252;8.904;2023-04-25T02:11:23;99096.63;;;8.39;94.69
60489;BME280;46331;49.252;8.904;2023-04-25T02:12:28;99094.53;;;8.41;95.37
60489;BME280;46331;49.252;8.904;2023-04-25T02:13:27;99097.50;;;8.45;94.81
60489;BME280;46331;49.252;8.904;2023-04-25T02:14:12;99092.00;;;8.47;95.13
60489;BME280;46331;49.252;8.904;2023-04-25T02:15:16;99095.00;;;8.38;94.43
60489;BME280;46331;49.252;8.904;2023-04-25T02:16:06;99096.38;;;8.41;93.86
60489;BME280;46331;49.252;8.904;2023-04-25T02:16:47;99099.91;;;8.47;94.33
60489;BME280;46331;49.252;8.904;2023-04-25T02:17:27;99094.41;;;8.48;94.21
60489;BME280;46331;49.252;8.904;2023-04-25T02:18:08;99091.75;;;8.48;94.87
60489;BME280;46331;49.252;8.904;2023-04-25T02:18:50;99095.28;;;8.54;95.34
60489;BME280;46331;49.252;8.904;2023-04-25T02:19:33;99098.88;;;8.48;94.26
60489;BME280;46331;49.252;8.904;2023-04-25T02:20:14;99097.03;;;8.48;94.65
60489;BME280;46331;49.252;8.904;2023-04-25T02:20:56;99097.03;;;8.48;94.00
60489;BME280;46331;49.252;8.904;2023-04-25T02:21:36;99096.38;;;8.41;93.32
60489;BME280;46331;49.252;8.904;2023-04-25T02:22:17;99093.06;;;8.46;94.33
60489;BME280;46331;49.252;8.904;2023-04-25T02:22:59;99098.19;;;8.40;94.74
60489;BME280;46331;49.252;8.904;2023-04-25T02:23:41;99101.53;;;8.48;94.56
60489;BME280;46331;49.252;8.904;2023-04-25T02:24:22;99098.56;;;8.44;94.56
60489;BME280;46331;49.252;8.904;2023-04-25T02:25:03;99094.09;;;8.45;94.57
60489;BME280;46331;49.252;8.904;2023-04-25T02:25:45;99098.19;;;8.40;94.98
60489;BME280;46331;49.252;8.904;2023-04-25T02:26:25;99090.41;;;8.46;95.06
60489;BME280;46331;49.252;8.904;2023-04-25T02:27:06;99093.28;;;8.44;94.84
60489;BME280;46331;49.252;8.904;2023-04-25T02:27:49;99092.22;;;8.45;94.29
60489;BME280;46331;49.252;8.904;2023-04-25T02:28:30;99086.84;;;8.40;94.43
60489;BME280;46331;49.252;8.904;2023-04-25T02:29:11;99094.53;;;8.41;95.01
60489;BME280;46331;49.252;8.904;2023-04-25T02:29:51;99090.28;;;8.40;94.98
60489;BME280;46331;49.252;8.904;2023-04-25T02:30:32;99086.75;;;8.35;95.20
60489;BME280;46331;49.252;8.904;2023-04-25T02:31:12;99085.06;;;8.29;95.48
60489;BME280;46331;49.252;8.904;2023-04-25T02:31:53;99089.78;;;8.27;95.63
60489;BME280;46331;49.252;8.904;2023-04-25T02:32:34;99089.53;;;8.28;96.32
60489;BME280;46331;49.252;8.904;2023-04-25T02:33:14;99087.59;;;8.23;96.03
60489;BME280;46331;49.252;8.904;2023-04-25T02:33:57;99090.25;;;8.23;96.37
60489;BME280;46331;49.252;8.904;2023-04-25T02:34:37;99088.66;;;8.22;97.17
60489;BME280;46331;49.252;8.904;2023-04-25T02:35:18;99087.06;;;8.21;97.22
60489;BME280;46331;49.252;8.904;2023-04-25T02:35:59;99087.84;;;8.22;97.98
60489;BME280;46331;49.252;8.904;2023-04-25T02:36:40;99085.44;;;8.20;97.96
60489;BME280;46331;49.252;8.904;2023-04-25T02:37:21;99087.44;;;8.13;97.47
60489;BME280;46331;49.252;8.904;2023-04-25T02:38:02;99087.91;;;8.10;97.75
60489;BME280;46331;49.252;8.904;2023-04-25T02:38:42;99090.31;;;8.12;98.58
60489;BME280;46331;49.252;8.904;2023-04-25T02:39:23;99084.69;;;8.08;98.58
60489;BME280;46331;49.252;8.904;2023-04-25T02:40:06;99087.81;;;8.05;98.17
60489;BME280;46331;49.252;8.904;2023-04-25T02:40:46;99089.19;;;8.08;98.14
60489;BME280;46331;49.252;8.904;2023-04-25T02:41:27;99083.09;;;8.07;98.98
60489;BME280;46331;49.252;8.904;2023-04-25T02:42:09;99085.75;;;8.07;98.94
60489;BME280;46331;49.252;8.904;2023-04-25T02:42:50;99094.13;;;8.04;98.85
60489;BME280;46331;49.252;8.904;2023-04-25T02:43:32;99092.75;;;8.01;99.21
60489;BME280;46331;49.252;8.904;2023-04-25T02:44:13;99088.19;;;7.97;98.98
60489;BME280;46331;49.252;8.904;2023-04-25T02:44:53;99088.41;;;7.95;99.34
60489;BME280;46331;49.252;8.904;2023-04-25T02:45:34;99080.81;;;7.99;100.00
60489;BME280;46331;49.252;8.904;2023-04-25T02:46:15;99085.31;;;7.98;100.00
60489;BME280;46331;49.252;8.904;2023-04-25T02:46:56;99083.47;;;7.99;99.50
60489;BME280;46331;49.252;8.904;2023-04-25T02:47:37;99083.00;;;8.02;99.63
60489;BME280;46331;49.252;8.904;2023-04-25T02:48:18;99071.09;;;7.99;99.52
60489;BME280;46331;49.252;8.904;2023-04-25T02:48:58;99086.81;;;7.94;99.10
60489;BME280;46331;49.252;8.904;2023-04-25T02:49:39;99081.53;;;7.94;99.54
60489;BME280;46331;49.252;8.904;2023-04-25T02:50:20;99075.00;;;7.97;99.76
60489;BME280;46331;49.252;8.904;2023-04-25T02:51:01;99084.16;;;7.94;99.96
60489;BME280;46331;49.252;8.904;2023-04-25T02:51:42;99076.47;;;7.93;98.86
60489;BME280;46331;49.252;8.904;2023-04-25T02:52:22;99075.56;;;7.87;99.65
60489;BME280;46331;49.252;8.904;2023-04-25T02:53:11;99080.22;;;7.80;99.05
60489;BME280;46331;49.252;8.904;2023-04-25T02:53:58;99077.81;;;7.78;99.21
60489;BME280;46331;49.252;8.904;2023-04-25T02:54:40;99073.63;;;7.82;99.05
60489;BME280;46331;49.252;8.904;2023-04-25T02:55:20;99082.16;;;7.84;99.67
60489;BME280;46331;49.252;8.904;2023-04-25T02:56:02;99081.69;;;7.87;99.53
60489;BME280;46331;49.252;8.904;2023-04-25T02:56:43;99085.34;;;7.86;99.38
60489;BME280;46331;49.252;8.904;2023-04-25T02:57:28;99082.63;;;7.81;99.41
60489;BME280;46331;49.252;8.904;2023-04-25T02:58:09;99085.72;;;7.78;99.17
60489;BME280;46331;49.252;8.904;2023-04-25T02:59:00;99079.38;;;7.79;99.31
60489;BME280;46331;49.252;8.904;2023-04-25T02:59:41;99085.50;;;7.80;99.52
60489;BME280;46331;49.252;8.904;2023-04-25T03:00:22;99078.63;;;7.67;99.46
60489;BME280;46331;49.252;8.904;2023-04-25T03:01:02;99080.25;;;7.68;100.00
60489;BME280;46331;49.252;8.904;2023-04-25T03:01:43;99086.31;;;7.68;100.00
60489;BME280;46331;49.252;8.904;2023-04-25T03:02:23;99076.75;;;7.79;99.74
60489;BME280;46331;49.252;8.904;2023-04-25T03:03:04;99079.84;;;7.76;99.50
60489;BME280;46331;49.252;8.904;2023-04-25T03:03:45;99073.00;;;7.75;99.45
60489;BME280;46331;49.252;8.904;2023-04-25T03:04:26;99082.16;;;7.73;99.79
60489;BME280;46331;49.252;8.904;2023-04-25T03:05:06;99081.09;;;7.85;98.99
60489;BME280;46331;49.252;8.904;2023-04-25T03:05:49;99079.63;;;7.78;99.72
60489;BME280;46331;49.252;8.904;2023-04-25T03:06:33;99072.25;;;7.92;99.78
60489;BME280;46331;49.252;8.904;2023-04-25T03:07:13;99085.50;;;7.80;100.00
60489;BME280;46331;49.252;8.904;2023-04-25T03:07:55;99087.00;;;7.76;99.73
60489;BME280;46331;49.252;8.904;2023-04-25T03:08:35;99083.72;;;7.85;99.88
60489;BME280;46331;49.252;8.904;2023-04-25T03:09:16;99083.88;;;7.79;99.48
60489;BME280;46331;49.252;8.904;2023-04-25T03:09:57;99072.25;;;7.92;99.52
60489;BME280;46331;49.252;8.904;2023-04-25T03:10:38;99080.25;;;7.97;99.61
60489;BME280;46331;49.252;8.904;2023-04-25T03:11:21;99078.09;;;7.94;98.39
60489;BME280;46331;49.252;8.904;2023-04-25T03:12:02;99082.34;;;7.95;98.19
60489;BME280;46331;49.252;8.904;2023-04-25T03:12:43;99079.78;;;8.00;98.67
60489;BME280;46331;49.252;8.904;2023-04-25T03:13:24;99079.00;;;7.99;98.36
60489;BME280;46331;49.252;8.904;2023-04-25T03:14:05;99082.34;;;7.95;99.10
60489;BME280;46331;49.252;8.904;2023-04-25T03:14:45;99081.16;;;7.74;99.12
60489;BME280;46331;49.252;8.904;2023-04-25T03:15:26;99081.50;;;7.65;99.34
60489;BME280;46331;49.252;8.904;2023-04-25T03:16:07;99089.31;;;7.72;99.21
60489;BME280;46331;49.252;8.904;2023-04-25T03:16:48;99082.84;;;7.80;99.79
60489;BME280;46331;49.252;8.904;2023-04-25T03:17:31;99082.69;;;7.86;99.92
60489;BME280;46331;49.252;8.904;2023-04-25T03:18:12;99080.31;;;7.85;100.00
60489;BME280;46331;49.252;8.904;2023-04-25T03:18:53;99077.78;;;7.90;100.00
60489;BME280;46331;49.252;8.904;2023-04-25T03:19:34;99076.47;;;7.93;100.00
60489;BME280;46331;49.252;8.904;2023-04-25T03:20:14;99073.38;;;7.96;100.00
60489;BME280;46331;49.252;8.904;2023-04-25T03:20:55;99079.94;;;7.93;99.97
60489;BME280;46331;49.252;8.904;2023-04-25T03:21:36;99077.19;;;7.88;100.00
60489;BME280;46331;49.252;8.904;2023-04-25T03:22:17;99080.31;;;7.73;100.00
60489;BME280;46331;49.252;8.904;2023-04-25T03:22:57;99073.47;;;7.72;100.00
60489;BME280;46331;49.252;8.904;2023-04-25T03:23:38;99083.09;;;7.78;100.00
60489;BME280;46331;49.252;8.904;2023-04-25T03:24:19;99076.19;;;7.77;100.00
60489;BME280;46331;49.252;8.904;2023-04-25T03:24:59;99076.44;;;7.76;100.00
60489;BME280;46331;49.252;8.904;2023-04-25T03:25:40;99078.75;;;7.72;100.00
60489;BME280;46331;49.252;8.904;2023-04-25T03:26:21;99075.63;;;7.75;100.00
60489;BME280;46331;49.252;8.904;2023-04-25T03:27:02;99081.47;;;7.77;100.00
60489;BME280;46331;49.252;8.904;2023-04-25T03:27:43;99078.84;;;7.77;100.00
60489;BME280;46331;49.252;8.904;2023-04-25T03:28:24;99082.19;;;7.61;100.00
60489;BME280;46331;49.252;8.904;2023-04-25T03:29:04;99079.31;;;7.62;100.00
60489;BME280;46331;49.252;8.904;2023-04-25T03:29:47;99077.38;;;7.69;100.00
60489;BME280;46331;49.252;8.904;2023-04-25T03:30:28;99074.28;;;7.61;100.00
60489;BME280;46331;49.252;8.904;2023-04-25T03:31:08;99077.63;;;7.56;100.00
60489;BME280;46331;49.252;8.904;2023-04-25T03:31:49;99075.19;;;7.66;100.00
60489;BME280;46331;49.252;8.904;2023-04-25T03:32:29;99074.88;;;7.63;100.00
60489;BME280;46331;49.252;8.904;2023-04-25T03:33:10;99075.19;;;7.66;100.00
60489;BME280;46331;49.252;8.904;2023-04-25T03:33:50;99075.66;;;7.63;100.00
60489;BME280;46331;49.252;8.904;2023-04-25T03:34:33;99066.28;;;7.56;100.00
60489;BME280;46331;49.252;8.904;2023-04-25T03:35:13;99073.41;;;7.43;100.00
60489;BME280;46331;49.252;8.904;2023-04-25T03:35:54;99076.25;;;7.54;100.00
60489;BME280;46331;49.252;8.904;2023-04-25T03:36:35;99073.84;;;7.52;100.00
60489;BME280;46331;49.252;8.904;2023-04-25T03:37:16;99074.28;;;7.61;100.00
60489;BME280;46331;49.252;8.904;2023-04-25T03:37:56;99076.13;;;7.60;100.00
60489;BME280;46331;49.252;8.904;2023-04-25T03:38:42;99078.53;;;7.62;100.00
60489;BME280;46331;49.252;8.904;2023-04-25T03:39:24;99076.59;;;7.57;100.00
60489;BME280;46331;49.252;8.904;2023-04-25T03:40:06;99079.94;;;7.52;100.00
60489;BME280;46331;49.252;8.904;2023-04-25T03:41:07;99075.81;;;7.57;100.00
60489;BME280;46331;49.252;8.904;2023-04-25T03:42:09;99074.03;;;7.62;100.00
60489;BME280;46331;49.252;8.904;2023-04-25T03:42:50;99078.53;;;7.62;100.00
60489;BME280;46331;49.252;8.904;2023-04-25T03:43:30;99081.06;;;7.57;100.00
60489;BME280;46331;49.252;8.904;2023-04-25T03:44:16;99075.69;;;7.51;100.00